createdAt,value
2017-11-18T00:00:05.324Z,3.64
2017-11-18T00:02:32.815Z,3.72
2017-11-18T00:05:00.279Z,3.66
2017-11-18T00:07:27.748Z,3.65
2017-11-18T00:09:55.240Z,3.65
2017-11-18T00:12:22.720Z,3.67
2017-11-18T00:14:50.214Z,3.75
2017-11-18T00:17:17.674Z,3.64
2017-11-18T00:19:45.428Z,3.69
2017-11-18T00:22:12.897Z,3.69
2017-11-18T00:24:40.368Z,3.71
2017-11-18T00:27:07.862Z,3.75
2017-11-18T00:29:35.332Z,3.76
2017-11-18T00:32:02.829Z,3.73
2017-11-18T00:34:30.289Z,3.69
2017-11-18T00:36:57.775Z,3.69
2017-11-18T00:39:25.262Z,3.70
2017-11-18T00:41:52.739Z,3.70
2017-11-18T00:44:20.220Z,3.64
2017-11-18T00:46:47.690Z,3.71
2017-11-18T00:49:15.189Z,3.74
2017-11-18T00:51:42.681Z,3.71
2017-11-18T00:54:10.167Z,3.71
2017-11-18T00:56:37.655Z,3.72
2017-11-18T00:59:05.141Z,3.74
2017-11-18T01:01:32.615Z,3.73
2017-11-18T01:04:00.116Z,3.78
2017-11-18T01:06:27.610Z,3.75
2017-11-18T01:08:55.084Z,3.74
2017-11-18T01:11:22.581Z,3.76
2017-11-18T01:13:50.055Z,3.75
2017-11-18T01:16:17.552Z,3.77
2017-11-18T01:18:45.056Z,3.80
2017-11-18T01:21:12.555Z,3.73
2017-11-18T01:23:40.036Z,3.73
2017-11-18T01:26:07.511Z,3.68
2017-11-18T01:28:35.026Z,3.67
2017-11-18T01:31:02.495Z,3.64
2017-11-18T01:33:29.996Z,3.63
2017-11-18T01:35:57.459Z,3.69
2017-11-18T01:38:24.928Z,3.68
2017-11-18T01:40:52.413Z,3.66
2017-11-18T01:43:19.887Z,3.69
2017-11-18T01:45:47.385Z,3.77
2017-11-18T01:48:14.847Z,3.68
2017-11-18T01:50:42.331Z,3.67
2017-11-18T01:53:09.815Z,3.64
2017-11-18T01:55:37.304Z,3.66
2017-11-18T01:58:04.794Z,3.78
2017-11-18T02:00:32.267Z,3.70
2017-11-18T02:02:59.755Z,3.71
2017-11-18T02:05:27.225Z,3.78
2017-11-18T02:07:54.687Z,3.71
2017-11-18T02:10:22.176Z,3.69
2017-11-18T02:12:49.651Z,3.68
2017-11-18T02:15:17.122Z,3.70
2017-11-18T02:17:44.619Z,3.74
2017-11-18T02:20:12.082Z,3.67
2017-11-18T02:22:39.580Z,3.67
2017-11-18T02:25:07.049Z,3.72
2017-11-18T02:27:34.566Z,3.75
2017-11-18T02:30:02.038Z,3.78
2017-11-18T02:32:29.529Z,3.66
2017-11-18T02:34:57.023Z,3.68
2017-11-18T02:37:24.517Z,3.75
2017-11-18T02:39:52.009Z,3.68
2017-11-18T02:42:19.490Z,3.73
2017-11-18T02:44:46.946Z,3.67
2017-11-18T02:47:14.430Z,3.67
2017-11-18T02:49:41.920Z,3.71
2017-11-18T02:52:09.414Z,3.70
2017-11-18T02:54:36.890Z,3.66
2017-11-18T02:57:04.347Z,3.68
2017-11-18T02:59:31.835Z,3.70
2017-11-18T03:01:59.303Z,3.75
2017-11-18T03:04:26.773Z,3.67
2017-11-18T03:06:54.540Z,3.72
2017-11-18T03:09:22.011Z,3.66
2017-11-18T03:11:49.478Z,3.72
2017-11-18T03:14:16.966Z,3.68
2017-11-18T03:16:44.430Z,3.71
2017-11-18T03:19:11.915Z,3.67
2017-11-18T03:21:39.380Z,3.63
2017-11-18T03:24:06.844Z,3.72
2017-11-18T03:26:34.339Z,3.72
2017-11-18T03:29:01.816Z,3.69
2017-11-18T03:31:29.312Z,3.79
2017-11-18T03:33:56.775Z,3.66
2017-11-18T03:36:24.269Z,3.71
2017-11-18T03:38:51.784Z,3.68
2017-11-18T03:41:19.251Z,3.78
2017-11-18T03:43:46.751Z,3.62
2017-11-18T03:46:14.226Z,3.78
2017-11-18T03:48:41.723Z,3.78
2017-11-18T03:51:09.215Z,3.86
2017-11-18T03:53:36.686Z,3.83
2017-11-18T03:56:04.155Z,3.77
2017-11-18T03:58:31.655Z,3.79
2017-11-18T04:00:59.122Z,3.74
2017-11-18T04:03:26.604Z,3.66
2017-11-18T04:05:54.093Z,3.60
2017-11-18T04:08:21.555Z,3.63
2017-11-18T04:10:49.038Z,3.66
2017-11-18T04:13:16.514Z,3.59
2017-11-18T04:15:43.979Z,3.66
2017-11-18T04:18:11.460Z,3.65
2017-11-18T04:20:38.973Z,3.61
2017-11-18T04:23:06.459Z,3.63
2017-11-18T04:25:33.931Z,3.65
2017-11-18T04:28:01.418Z,3.68
2017-11-18T04:30:28.913Z,3.65
2017-11-18T04:32:56.374Z,3.69
2017-11-18T04:35:23.859Z,3.67
2017-11-18T04:37:51.358Z,3.66
2017-11-18T04:40:18.852Z,3.66
2017-11-18T04:42:46.343Z,3.67
2017-11-18T04:45:13.817Z,3.67
2017-11-18T04:47:41.288Z,3.67
2017-11-18T04:50:08.777Z,3.68
2017-11-18T04:52:36.243Z,3.62
2017-11-18T04:55:03.739Z,3.66
2017-11-18T04:57:31.208Z,3.62
2017-11-18T04:59:58.670Z,3.64
2017-11-18T05:02:26.159Z,3.64
2017-11-18T05:04:53.658Z,3.62
2017-11-18T05:07:21.117Z,3.56
2017-11-18T05:09:48.600Z,3.57
2017-11-18T05:12:16.078Z,3.64
2017-11-18T05:14:43.567Z,3.62
2017-11-18T05:17:11.040Z,3.65
2017-11-18T05:19:38.535Z,3.61
2017-11-18T05:22:06.022Z,3.67
2017-11-18T05:24:33.509Z,3.68
2017-11-18T05:27:01.010Z,3.65
2017-11-18T05:29:28.501Z,3.65
2017-11-18T05:31:56.208Z,3.59
2017-11-18T05:34:23.680Z,3.65
2017-11-18T05:36:51.149Z,3.61
2017-11-18T05:39:18.656Z,3.59
2017-11-18T05:41:46.144Z,3.65
2017-11-18T05:44:13.645Z,3.61
2017-11-18T05:46:41.363Z,3.59
2017-11-18T05:49:08.838Z,3.60
2017-11-18T05:51:36.337Z,3.61
2017-11-18T05:54:03.809Z,3.61
2017-11-18T05:56:31.310Z,3.68
2017-11-18T05:58:58.801Z,3.66
2017-11-18T06:01:26.647Z,3.73
2017-11-18T06:03:54.119Z,3.66
2017-11-18T06:06:21.598Z,3.64
2017-11-18T06:08:49.096Z,3.68
2017-11-18T06:11:16.565Z,3.71
2017-11-18T06:13:44.068Z,3.66
2017-11-18T06:16:11.555Z,3.67
2017-11-18T06:18:39.020Z,3.65
2017-11-18T06:21:06.510Z,3.67
2017-11-18T06:23:33.965Z,3.64
2017-11-18T06:26:01.455Z,3.69
2017-11-18T06:28:28.919Z,3.64
2017-11-18T06:30:56.415Z,3.68
2017-11-18T06:33:24.016Z,3.67
2017-11-18T06:35:51.499Z,3.66
2017-11-18T06:38:18.964Z,3.72
2017-11-18T06:40:46.423Z,3.68
2017-11-18T06:43:13.913Z,3.71
2017-11-18T06:45:41.391Z,3.73
2017-11-18T06:48:08.876Z,3.73
2017-11-18T06:50:36.367Z,3.80
2017-11-18T06:53:03.834Z,3.76
2017-11-18T06:55:31.327Z,3.74
2017-11-18T06:57:58.799Z,3.78
2017-11-18T07:00:26.255Z,3.86
2017-11-18T07:02:53.742Z,3.85
2017-11-18T07:05:21.207Z,3.86
2017-11-18T07:07:48.676Z,3.89
2017-11-18T07:10:16.166Z,3.84
2017-11-18T07:12:43.645Z,3.90
2017-11-18T07:15:11.140Z,3.90
2017-11-18T07:17:38.627Z,3.95
2017-11-18T07:20:06.088Z,3.86
2017-11-18T07:22:33.587Z,3.86
2017-11-18T07:25:01.055Z,3.91
2017-11-18T07:27:28.543Z,3.97
2017-11-18T07:29:56.012Z,3.99
2017-11-18T07:32:23.510Z,3.93
2017-11-18T07:34:50.981Z,3.94
2017-11-18T07:37:18.482Z,3.98
2017-11-18T07:39:45.964Z,3.99
2017-11-18T07:42:13.462Z,4.02
2017-11-18T07:44:40.939Z,4.07
2017-11-18T07:47:08.422Z,4.04
2017-11-18T07:49:35.883Z,4.02
2017-11-18T07:52:03.378Z,4.12
2017-11-18T07:54:30.839Z,4.23
2017-11-18T07:56:58.327Z,4.15
2017-11-18T07:59:25.821Z,4.26
2017-11-18T08:01:53.288Z,4.24
2017-11-18T08:04:20.767Z,4.20
2017-11-18T08:06:48.236Z,4.22
2017-11-18T08:09:15.719Z,4.15
2017-11-18T08:11:43.202Z,4.12
2017-11-18T08:14:10.670Z,4.26
2017-11-18T08:16:38.142Z,4.25
2017-11-18T08:19:05.647Z,4.17
2017-11-18T08:21:33.119Z,4.33
2017-11-18T08:24:00.615Z,4.30
2017-11-18T08:26:28.100Z,4.25
2017-11-18T08:28:55.572Z,4.32
2017-11-18T08:31:23.082Z,4.25
2017-11-18T08:33:50.547Z,4.35
2017-11-18T08:36:29.748Z,4.45
2017-11-18T08:38:57.215Z,4.40
2017-11-18T08:41:24.691Z,4.39
2017-11-18T08:43:52.184Z,4.44
2017-11-18T08:46:19.655Z,4.57
2017-11-18T08:48:47.147Z,4.38
2017-11-18T08:51:14.628Z,4.62
2017-11-18T08:53:42.351Z,4.46
2017-11-18T08:56:09.826Z,4.56
2017-11-18T08:58:37.286Z,4.62
2017-11-18T09:01:04.780Z,4.57
2017-11-18T09:03:32.238Z,4.44
2017-11-18T09:05:59.728Z,4.47
2017-11-18T09:08:27.212Z,4.46
2017-11-18T09:10:54.714Z,4.46
2017-11-18T09:13:22.203Z,4.53
2017-11-18T09:15:49.664Z,4.45
2017-11-18T09:18:17.150Z,4.45
2017-11-18T09:20:44.623Z,4.50
2017-11-18T09:23:12.123Z,4.64
2017-11-18T09:25:39.591Z,4.68
2017-11-18T09:28:07.058Z,4.65
2017-11-18T09:30:34.549Z,4.71
2017-11-18T09:33:02.016Z,4.82
2017-11-18T09:35:29.505Z,4.72
2017-11-18T09:37:56.980Z,4.79
2017-11-18T09:40:24.479Z,4.88
2017-11-18T09:42:51.937Z,4.89
2017-11-18T09:45:19.399Z,5.03
2017-11-18T09:47:46.883Z,4.80
2017-11-18T09:50:14.360Z,4.85
2017-11-18T09:52:41.847Z,4.92
2017-11-18T09:55:09.316Z,4.90
2017-11-18T09:57:36.799Z,4.97
2017-11-18T10:00:04.269Z,5.06
2017-11-18T10:02:31.748Z,4.99
2017-11-18T10:04:59.246Z,5.09
2017-11-18T10:07:26.733Z,5.16
2017-11-18T10:09:54.311Z,5.07
2017-11-18T10:12:21.775Z,5.05
2017-11-18T10:14:49.250Z,5.15
2017-11-18T10:17:16.755Z,5.23
2017-11-18T10:19:44.260Z,5.16
2017-11-18T10:22:11.719Z,5.19
2017-11-18T10:24:39.222Z,5.30
2017-11-18T10:27:06.705Z,5.38
2017-11-18T10:29:34.174Z,5.40
2017-11-18T10:32:01.667Z,5.44
2017-11-18T10:34:29.133Z,5.56
2017-11-18T10:36:56.631Z,5.56
2017-11-18T10:39:24.131Z,5.69
2017-11-18T10:41:51.628Z,5.84
2017-11-18T10:44:19.099Z,5.73
2017-11-18T10:46:46.583Z,5.87
2017-11-18T10:49:14.075Z,5.69
2017-11-18T10:51:41.563Z,5.47
2017-11-18T10:54:09.041Z,5.59
2017-11-18T10:56:36.511Z,5.45
2017-11-18T10:59:04.009Z,5.42
2017-11-18T11:01:31.503Z,5.45
2017-11-18T11:03:58.958Z,5.31
2017-11-18T11:06:26.451Z,5.44
2017-11-18T11:08:53.937Z,5.36
2017-11-18T11:11:21.428Z,5.33
2017-11-18T11:13:48.886Z,5.46
2017-11-18T11:16:16.390Z,5.44
2017-11-18T11:21:16.594Z,5.50
2017-11-18T11:23:44.072Z,5.37
2017-11-18T11:26:11.564Z,5.39
2017-11-18T11:28:39.052Z,5.37
2017-11-18T11:31:06.538Z,5.21
2017-11-18T11:33:34.010Z,5.36
2017-11-18T11:36:01.493Z,5.33
2017-11-18T11:38:28.978Z,5.49
2017-11-18T11:40:56.439Z,5.47
2017-11-18T11:43:24.871Z,5.36
2017-11-18T11:45:52.355Z,5.40
2017-11-18T11:48:19.813Z,5.50
2017-11-18T11:50:47.306Z,5.40
2017-11-18T11:53:14.788Z,5.37
2017-11-18T11:55:42.249Z,5.54
2017-11-18T11:58:09.723Z,5.55
2017-11-18T12:00:37.246Z,5.69
2017-11-18T12:03:04.716Z,5.67
2017-11-18T12:05:32.170Z,5.62
2017-11-18T12:07:59.654Z,5.92
2017-11-18T12:10:27.111Z,5.82
2017-11-18T12:12:54.616Z,5.89
2017-11-18T12:15:22.095Z,5.78
2017-11-18T12:17:49.566Z,5.87
2017-11-18T12:20:17.283Z,5.91
2017-11-18T12:22:44.747Z,5.78
2017-11-18T12:25:12.212Z,5.75
2017-11-18T12:27:39.707Z,5.68
2017-11-18T12:30:07.195Z,5.69
2017-11-18T12:32:34.694Z,5.66
2017-11-18T12:35:02.355Z,5.56
2017-11-18T12:37:29.824Z,5.62
2017-11-18T12:39:57.279Z,5.64
2017-11-18T12:42:24.772Z,5.66
2017-11-18T12:44:52.234Z,5.58
2017-11-18T12:47:19.714Z,5.53
2017-11-18T12:49:47.203Z,5.64
2017-11-18T12:52:14.662Z,5.62
2017-11-18T12:54:42.151Z,5.67
2017-11-18T12:57:09.632Z,5.60
2017-11-18T12:59:37.095Z,5.51
2017-11-18T13:02:04.586Z,5.59
2017-11-18T13:04:32.047Z,5.56
2017-11-18T13:06:59.544Z,5.52
2017-11-18T13:09:27.010Z,5.51
2017-11-18T13:11:54.477Z,5.47
2017-11-18T13:14:21.982Z,5.40
2017-11-18T13:16:49.446Z,5.48
2017-11-18T13:19:16.934Z,5.46
2017-11-18T13:21:44.395Z,5.43
2017-11-18T13:24:11.884Z,5.47
2017-11-18T13:26:39.360Z,5.40
2017-11-18T13:29:06.847Z,5.49
2017-11-18T13:31:34.312Z,5.47
2017-11-18T13:34:01.769Z,5.50
2017-11-18T13:36:29.247Z,5.52
2017-11-18T13:38:56.701Z,5.48
2017-11-18T13:41:24.159Z,5.42
2017-11-18T13:43:51.680Z,5.43
2017-11-18T13:46:19.139Z,5.48
2017-11-18T13:48:46.643Z,5.48
2017-11-18T13:51:14.111Z,5.41
2017-11-18T13:53:41.602Z,5.36
2017-11-18T13:56:09.074Z,5.38
2017-11-18T13:58:36.571Z,5.37
2017-11-18T14:01:04.046Z,5.43
2017-11-18T14:03:31.519Z,5.42
2017-11-18T14:05:59.292Z,5.40
2017-11-18T14:08:26.751Z,5.40
2017-11-18T14:10:54.223Z,5.37
2017-11-18T14:13:21.738Z,5.33
2017-11-18T14:15:49.231Z,5.40
2017-11-18T14:18:16.711Z,5.27
2017-11-18T14:20:44.191Z,5.47
2017-11-18T14:23:11.654Z,5.43
2017-11-18T14:25:39.152Z,5.47
2017-11-18T14:28:06.613Z,5.44
2017-11-18T14:30:34.073Z,5.40
2017-11-18T14:33:01.556Z,5.36
2017-11-18T14:35:29.016Z,5.41
2017-11-18T14:37:56.509Z,5.31
2017-11-18T14:40:24.008Z,5.38
2017-11-18T14:42:51.459Z,5.37
2017-11-18T14:45:18.959Z,5.39
2017-11-18T14:47:46.441Z,5.41
2017-11-18T14:50:13.926Z,5.36
2017-11-18T14:52:41.388Z,5.33
2017-11-18T14:55:08.869Z,5.37
2017-11-18T14:57:36.351Z,5.22
2017-11-18T15:00:03.817Z,5.32
2017-11-18T15:02:31.298Z,5.30
2017-11-18T15:04:58.758Z,5.31
2017-11-18T15:07:26.257Z,5.26
2017-11-18T15:09:53.709Z,5.25
2017-11-18T15:12:21.200Z,5.20
2017-11-18T15:14:52.270Z,5.24
2017-11-18T15:17:25.167Z,5.19
2017-11-18T15:20:00.595Z,5.17
2017-11-18T15:25:37.036Z,5.18
2017-11-18T15:28:06.463Z,5.20
2017-11-18T15:33:39.893Z,5.21
2017-11-18T15:36:17.336Z,5.19
2017-11-18T15:38:46.211Z,5.13
2017-11-18T15:41:13.681Z,5.16
2017-11-18T15:47:06.898Z,5.20
2017-11-18T15:49:39.890Z,5.26
2017-11-18T15:52:09.196Z,5.26
2017-11-18T15:54:54.409Z,5.20
2017-11-18T15:57:21.892Z,5.22
2017-11-18T15:59:52.334Z,5.25
2017-11-18T16:02:20.279Z,5.25
2017-11-18T16:04:48.162Z,5.22
2017-11-18T16:07:16.157Z,5.28
2017-11-18T16:09:43.676Z,5.21
2017-11-18T16:12:11.166Z,5.19
2017-11-18T16:14:38.649Z,5.18
2017-11-18T16:17:06.131Z,5.19
2017-11-18T16:19:33.589Z,5.17
2017-11-18T16:22:01.073Z,5.17
2017-11-18T16:24:28.525Z,5.17
2017-11-18T16:26:56.005Z,5.12
2017-11-18T16:29:23.492Z,5.17
2017-11-18T16:31:50.957Z,5.17
2017-11-18T16:34:18.420Z,5.18
2017-11-18T16:36:45.907Z,5.20
2017-11-18T16:39:13.368Z,5.21
2017-11-18T16:41:40.949Z,5.17
2017-11-18T16:44:08.379Z,5.22
2017-11-18T16:46:35.859Z,5.22
2017-11-18T16:49:03.336Z,5.23
2017-11-18T16:51:30.820Z,5.25
2017-11-18T16:53:58.303Z,5.20
2017-11-18T16:56:25.810Z,5.18
2017-11-18T16:58:53.701Z,5.19
2017-11-18T17:01:21.166Z,5.21
2017-11-18T17:03:48.630Z,5.14
2017-11-18T17:06:16.121Z,5.27
2017-11-18T17:08:43.630Z,5.20
2017-11-18T17:11:11.114Z,5.19
2017-11-18T17:13:38.572Z,5.20
2017-11-18T17:16:06.080Z,5.24
2017-11-18T17:18:33.549Z,5.23
2017-11-18T17:21:01.018Z,5.29
2017-11-18T17:23:28.514Z,5.30
2017-11-18T17:25:56.005Z,5.41
2017-11-18T17:28:23.509Z,5.42
2017-11-18T17:30:50.975Z,5.39
2017-11-18T17:33:21.806Z,5.44
2017-11-18T17:35:49.380Z,5.44
2017-11-18T17:38:17.135Z,5.49
2017-11-18T17:40:44.591Z,5.51
2017-11-18T17:43:12.076Z,5.49
2017-11-18T17:45:39.546Z,5.53
2017-11-18T17:48:07.181Z,5.48
2017-11-18T17:50:34.633Z,5.50
2017-11-18T17:53:02.122Z,5.50
2017-11-18T17:55:29.588Z,5.47
2017-11-18T17:57:57.048Z,5.51
2017-11-18T18:00:24.528Z,5.54
2017-11-18T18:02:51.990Z,5.52
2017-11-18T18:05:19.480Z,5.50
2017-11-18T18:07:46.935Z,5.47
2017-11-18T18:10:14.424Z,5.60
2017-11-18T18:12:41.899Z,5.55
2017-11-18T18:15:09.375Z,5.52
2017-11-18T18:17:36.870Z,5.47
2017-11-18T18:20:04.360Z,5.57
2017-11-18T18:22:31.843Z,5.60
2017-11-18T18:24:59.312Z,5.56
2017-11-18T18:27:26.808Z,5.54
2017-11-18T18:29:54.271Z,5.66
2017-11-18T18:32:21.732Z,5.69
2017-11-18T18:34:49.213Z,5.63
2017-11-18T18:37:16.666Z,5.78
2017-11-18T18:39:44.138Z,5.75
2017-11-18T18:42:11.598Z,5.73
2017-11-18T18:44:39.086Z,5.76
2017-11-18T18:47:06.587Z,5.75
2017-11-18T18:49:34.038Z,5.76
2017-11-18T18:52:01.511Z,5.75
2017-11-18T18:54:29.007Z,5.76
2017-11-18T18:56:56.463Z,5.77
2017-11-18T18:59:23.942Z,5.82
2017-11-18T19:01:51.405Z,5.82
2017-11-18T19:04:18.862Z,5.83
2017-11-18T19:06:46.344Z,5.88
2017-11-18T19:09:13.836Z,5.83
2017-11-18T19:11:41.335Z,5.85
2017-11-18T19:14:08.787Z,5.89
2017-11-18T19:16:36.400Z,5.92
2017-11-18T19:19:03.932Z,5.92
2017-11-18T19:21:31.400Z,5.94
2017-11-18T19:23:58.854Z,6.03
2017-11-18T19:26:26.327Z,6.02
2017-11-18T19:28:53.954Z,6.07
2017-11-18T19:31:21.484Z,6.08
2017-11-18T19:33:48.972Z,6.03
2017-11-18T19:36:16.469Z,6.09
2017-11-18T19:38:43.973Z,6.10
2017-11-18T19:41:11.475Z,6.05
2017-11-18T19:43:39.097Z,6.03
2017-11-18T19:46:06.599Z,6.09
2017-11-18T19:48:34.076Z,6.16
2017-11-18T19:51:01.771Z,6.18
2017-11-18T19:53:29.269Z,6.12
2017-11-18T19:55:56.794Z,6.13
2017-11-18T19:58:24.342Z,6.12
2017-11-18T20:00:51.829Z,6.07
2017-11-18T20:03:19.307Z,6.13
2017-11-18T20:05:46.846Z,6.10
2017-11-18T20:08:14.362Z,6.10
2017-11-18T20:10:42.008Z,6.06
2017-11-18T20:13:09.492Z,6.02
2017-11-18T20:15:36.992Z,6.05
2017-11-18T20:18:04.462Z,6.06
2017-11-18T20:20:31.952Z,5.96
2017-11-18T20:23:00.619Z,6.03
2017-11-18T20:25:28.083Z,5.96
2017-11-18T20:27:55.757Z,6.06
2017-11-18T20:30:23.346Z,6.03
2017-11-18T20:32:50.806Z,6.06
2017-11-18T20:35:18.288Z,6.04
2017-11-18T20:37:45.782Z,6.01
2017-11-18T20:40:13.320Z,6.09
2017-11-18T20:42:41.127Z,6.07
2017-11-18T20:45:08.599Z,6.01
2017-11-18T20:47:36.058Z,6.04
2017-11-18T20:50:03.568Z,6.00
2017-11-18T20:52:31.057Z,5.97
2017-11-18T20:54:58.520Z,6.08
2017-11-18T20:57:25.973Z,5.99
2017-11-18T20:59:53.453Z,6.05
2017-11-18T21:02:20.938Z,6.08
2017-11-18T21:04:48.405Z,6.02
2017-11-18T21:07:15.900Z,6.04
2017-11-18T21:09:43.363Z,6.05
2017-11-18T21:12:10.826Z,6.00
2017-11-18T21:14:38.318Z,5.98
2017-11-18T21:17:05.773Z,6.01
2017-11-18T21:19:33.248Z,6.01
2017-11-18T21:22:00.704Z,5.93
2017-11-18T21:24:28.183Z,6.06
2017-11-18T21:26:55.643Z,6.02
2017-11-18T21:29:23.118Z,6.00
2017-11-18T21:31:50.610Z,6.02
2017-11-18T21:34:18.062Z,5.99
2017-11-18T21:36:45.523Z,5.92
2017-11-18T21:39:12.988Z,5.97
2017-11-18T21:41:40.444Z,5.91
2017-11-18T21:44:07.940Z,5.86
2017-11-18T21:46:35.423Z,5.94
2017-11-18T21:49:02.907Z,5.91
2017-11-18T21:51:30.385Z,5.85
2017-11-18T21:53:57.861Z,5.93
2017-11-18T21:56:25.335Z,5.94
2017-11-18T21:58:52.785Z,5.96
2017-11-18T22:01:20.250Z,5.92
2017-11-18T22:03:47.702Z,5.98
2017-11-18T22:06:15.185Z,6.02
2017-11-18T22:08:42.675Z,5.89
2017-11-18T22:11:10.139Z,5.93
2017-11-18T22:13:37.625Z,5.95
2017-11-18T22:16:05.230Z,5.95
2017-11-18T22:18:32.716Z,5.99
2017-11-18T22:21:00.167Z,5.90
2017-11-18T22:23:27.679Z,5.82
2017-11-18T22:25:55.147Z,5.83
2017-11-18T22:28:22.596Z,5.82
2017-11-18T22:30:50.070Z,5.78
2017-11-18T22:33:17.517Z,5.72
2017-11-18T22:35:45.007Z,5.62
2017-11-18T22:38:12.463Z,5.62
2017-11-18T22:40:39.906Z,5.60
2017-11-18T22:43:07.379Z,5.52
2017-11-18T22:45:34.826Z,5.60
2017-11-18T22:48:02.314Z,5.51
2017-11-18T22:50:29.804Z,5.55
2017-11-18T22:52:57.268Z,5.59
2017-11-18T22:55:24.749Z,5.59
2017-11-18T22:57:52.227Z,5.49
2017-11-18T23:03:19.498Z,5.54
2017-11-18T23:05:46.980Z,5.57
2017-11-18T23:08:14.461Z,5.53
2017-11-18T23:10:41.920Z,5.57
2017-11-18T23:19:52.547Z,5.45
2017-11-18T23:22:20.012Z,5.44
2017-11-18T23:24:47.487Z,5.42
2017-11-18T23:27:14.949Z,5.42
2017-11-18T23:29:42.431Z,5.39
2017-11-18T23:32:09.907Z,5.43
2017-11-18T23:34:37.362Z,5.37
2017-11-18T23:37:04.835Z,5.42
2017-11-18T23:39:32.284Z,5.38
2017-11-18T23:41:59.758Z,5.39
2017-11-18T23:44:27.215Z,5.39
2017-11-18T23:46:54.663Z,5.32
2017-11-18T23:49:22.144Z,5.42
2017-11-18T23:51:49.598Z,5.41
2017-11-18T23:54:17.070Z,5.40
2017-11-18T23:56:44.740Z,5.38
2017-11-18T23:59:12.211Z,5.34
